Time;durP1;ratioP1;P1;durP2;ratioP2;P2;SDS_P1;SDS_P2;PMS_P1;PMS_P2;Temp;Humidity;BMP_temperature;BMP_pressure;BME280_temperature;BME280_humidity;BME280_pressure;Samples;Min_cycle;Max_cycle;Signal;HPM_P1;HPM_P2
2021/12/17 00:00:36;;;;;;;;;33.25;28.25;;;;;8.16;57.43;101857.72;146593;663;46916;-76
2021/12/17 00:03:44;;;;;;;;;31.50;27.75;;;;;8.17;57.55;101864.72;146588;564;46021;-77
2021/12/17 00:06:47;;;;;;;;;30.00;25.50;;;;;8.17;57.49;101863.03;146593;601;46016;-76
2021/12/17 00:09:41;;;;;;;;;30.00;27.00;;;;;8.19;57.30;101869.19;146594;592;47010;-75
2021/12/17 00:12:34;;;;;;;;;35.25;30.75;;;;;8.19;57.42;101871.78;146591;576;46016;-76
2021/12/17 00:15:26;;;;;;;;;36.25;30.00;;;;;8.19;57.68;101869.19;146596;575;47010;-77
2021/12/17 00:18:26;;;;;;;;;30.25;23.50;;;;;8.18;57.47;101866.50;146595;610;46012;-76
2021/12/17 00:43:48;;;;;;;;;29.00;24.00;;;;;8.23;56.82;101849.69;146597;588;45021;-76
2021/12/17 00:53:35;;;;;;;;;18.75;17.75;;;;;8.34;56.24;101848.81;146594;578;46020;-75
2021/12/17 00:56:28;;;;;;;;;26.00;22.00;;;;;8.34;56.07;101836.81;146596;576;46012;-82
2021/12/17 00:59:21;;;;;;;;;25.00;22.75;;;;;8.34;55.76;101839.38;146593;626;46020;-82
2021/12/17 01:02:16;;;;;;;;;27.50;23.25;;;;;8.32;56.05;101838.38;146594;621;46916;-79
2021/12/17 01:05:13;;;;;;;;;23.00;20.50;;;;;8.34;55.84;101841.06;146589;610;46020;-82
2021/12/17 01:08:08;;;;;;;;;32.00;27.00;;;;;8.34;55.79;101829.03;146593;588;46017;-81
2021/12/17 01:11:01;;;;;;;;;24.50;20.75;;;;;8.36;54.22;101828.28;146596;609;46020;-82
2021/12/17 01:13:54;;;;;;;;;14.50;10.50;;;;;8.38;52.42;101819.91;146593;621;46016;-82
2021/12/17 01:16:47;;;;;;;;;19.50;16.00;;;;;8.44;52.12;101817.81;146595;585;46021;-82
2021/12/17 01:35:41;;;;;;;;;21.50;20.00;;;;;8.68;50.11;101821.34;146589;618;46020;-77
2021/12/17 01:44:58;;;;;;;;;14.50;13.00;;;;;8.63;50.01;101822.69;146596;564;47012;-83
2021/12/17 01:47:50;;;;;;;;;11.50;11.50;;;;;8.60;50.29;101814.72;146598;591;46010;-81
2021/12/17 02:00:26;;;;;;;;;17.25;14.00;;;;;8.45;52.38;101806.66;146595;577;46022;-85
2021/12/17 02:03:20;;;;;;;;;22.00;19.00;;;;;8.37;53.47;101812.00;146596;588;46012;-81
2021/12/17 02:06:12;;;;;;;;;22.75;20.50;;;;;8.31;53.90;101813.31;146590;566;47020;-80
2021/12/17 02:09:04;;;;;;;;;23.50;18.00;;;;;7.24;54.75;101633.63;146596;585;46016;-80
2021/12/17 02:22:29;;;;;;;;;22.25;19.00;;;;;7.72;57.17;101819.81;146596;581;46013;-81
2021/12/17 02:31:30;;;;;;;;;28.25;22.00;;;;;6.46;56.94;101638.53;146597;583;46021;-73
2021/12/17 02:37:34;;;;;;;;;26.00;23.75;;;;;7.41;58.78;101811.28;146590;623;46021;-71
2021/12/17 02:46:47;;;;;;;;;25.25;20.75;;;;;7.22;59.24;101798.56;146594;682;46913;-81
2021/12/17 02:49:41;;;;;;;;;30.75;26.00;;;;;7.14;59.24;101803.13;146595;610;46020;-81
2021/12/17 02:52:36;;;;;;;;;26.50;20.50;;;;;7.08;59.24;101797.47;146596;579;46016;-80
2021/12/17 02:55:32;;;;;;;;;23.50;20.25;;;;;7.03;59.92;101797.84;146599;563;46010;-81
2021/12/17 02:58:30;;;;;;;;;26.50;25.75;;;;;5.91;59.87;101611.62;146598;636;46020;-81
2021/12/17 03:01:23;;;;;;;;;30.75;24.75;;;;;6.96;59.72;101806.75;146595;628;46021;-82
2021/12/17 03:04:17;;;;;;;;;23.50;23.00;;;;;6.93;59.87;101809.09;146592;640;46016;-81
2021/12/17 03:07:13;;;;;;;;;29.50;23.75;;;;;6.87;61.21;101806.91;146591;599;46021;-79
2021/12/17 03:10:08;;;;;;;;;27.75;22.25;;;;;6.84;60.85;101805.75;146595;619;46012;-81
2021/12/17 03:13:03;;;;;;;;;24.00;22.50;;;;;6.81;60.74;101811.53;146593;581;46020;-78
2021/12/17 03:16:00;;;;;;;;;27.00;25.00;;;;;6.81;60.56;101814.13;146594;582;46017;-80
2021/12/17 03:19:02;;;;;;;;;30.75;25.50;;;;;6.81;60.82;101806.37;146593;600;46951;-82
2021/12/17 03:25:05;;;;;;;;;30.50;27.25;;;;;6.84;60.35;101801.47;146593;701;46020;-80
2021/12/17 03:27:57;;;;;;;;;33.00;28.75;;;;;6.84;60.85;101809.22;146594;625;46016;-81
2021/12/17 03:30:50;;;;;;;;;26.50;26.50;;;;;6.81;60.12;101803.81;146596;613;46010;-81
2021/12/17 03:33:45;;;;;;;;;34.00;29.75;;;;;6.78;60.61;101819.03;146593;631;46016;-78
2021/12/17 03:36:37;;;;;;;;;29.50;25.25;;;;;6.75;60.11;101810.13;146592;623;46010;-78
2021/12/17 03:39:31;;;;;;;;;34.00;30.50;;;;;6.74;60.71;101814.38;146593;569;46016;-87
2021/12/17 03:42:23;;;;;;;;;29.75;25.00;;;;;5.61;60.37;101615.12;146596;594;46012;-79
2021/12/17 03:45:15;;;;;;;;;27.50;24.75;;;;;6.72;60.58;101805.63;146593;739;46035;-80
2021/12/17 03:48:08;;;;;;;;;29.50;23.50;;;;;6.71;61.14;101809.87;146595;569;46020;-82
2021/12/17 03:51:01;;;;;;;;;31.25;27.00;;;;;6.73;60.56;101807.44;146592;617;46016;-82
2021/12/17 03:53:57;;;;;;;;;29.00;27.00;;;;;6.74;60.49;101816.06;146598;610;46020;-80
2021/12/17 03:56:50;;;;;;;;;27.50;22.50;;;;;6.72;60.24;101809.09;146595;630;46016;-80
2021/12/17 03:59:42;;;;;;;;;31.00;29.00;;;;;5.61;61.70;101612.53;146599;570;46010;-80
2021/12/17 04:02:35;;;;;;;;;27.75;23.50;;;;;4.89;61.25;101476.91;146595;607;46016;-76
2021/12/17 04:05:28;;;;;;;;;31.25;28.75;;;;;6.65;61.79;101798.16;146591;604;46010;-87
2021/12/17 04:08:20;;;;;;;;;29.50;27.00;;;;;6.65;61.93;101795.56;146597;613;46012;-84
2021/12/17 04:11:18;;;;;;;;;35.25;29.50;;;;;6.63;61.63;101803.16;146594;608;46010;-89
2021/12/17 04:14:11;;;;;;;;;24.50;23.75;;;;;6.68;61.18;101812.19;146596;570;46012;-89
2021/12/17 04:17:05;;;;;;;;;27.00;23.50;;;;;6.71;61.58;101811.56;146597;566;46010;-83
2021/12/17 04:19:57;;;;;;;;;28.00;24.50;;;;;6.71;61.64;101811.56;146594;581;46016;-89
2021/12/17 04:22:50;;;;;;;;;25.75;23.00;;;;;6.70;61.17;101814.91;146594;706;46020;-83
2021/12/17 04:25:42;;;;;;;;;34.75;29.00;;;;;6.66;61.20;101824.03;146595;646;47012;-87
2021/12/17 04:28:40;;;;;;;;;29.25;24.00;;;;;6.62;61.05;101826.25;146597;571;46011;-84
2021/12/17 04:31:33;;;;;;;;;13.75;9.75;;;;;6.58;60.39;101821.62;146595;610;46014;-80
2021/12/17 04:34:26;;;;;;;;;32.25;25.00;;;;;6.57;60.07;101823.25;146591;620;46011;-80
2021/12/17 04:37:18;;;;;;;;;26.00;23.50;;;;;6.55;60.37;101814.53;146592;666;46017;-79
2021/12/17 04:40:12;;;;;;;;;21.50;21.50;;;;;6.52;59.88;101811.69;146593;646;46020;-81
2021/12/17 04:43:18;;;;;;;;;26.25;22.00;;;;;6.52;59.78;101815.94;146596;611;46013;-82
2021/12/17 04:46:27;;;;;;;;;30.75;28.25;;;;;6.50;59.83;101809.75;146593;729;47012;-80
2021/12/17 04:58:57;;;;;;;;;37.00;29.00;;;;;6.34;60.80;101823.00;146594;604;46021;-91
2021/12/17 05:01:49;;;;;;;;;36.75;32.00;;;;;6.27;60.87;101826.72;146596;652;46016;-88
2021/12/17 05:04:42;;;;;;;;;36.50;31.25;;;;;6.24;60.71;101827.34;146589;592;46020;-77
2021/12/17 05:07:35;;;;;;;;;39.50;33.00;;;;;6.23;61.12;101832.34;146595;627;46012;-77
2021/12/17 05:19:58;;;;;;;;;42.25;32.50;;;;;6.33;59.96;101816.94;146596;643;46914;-80
2021/12/17 05:22:56;;;;;;;;;35.25;31.50;;;;;6.36;59.55;101830.09;146596;565;46029;-79
2021/12/17 05:25:48;;;;;;;;;36.75;31.75;;;;;6.38;59.42;101823.37;146595;597;46016;-78
2021/12/17 05:28:41;;;;;;;;;29.50;26.75;;;;;6.37;59.52;101826.72;146599;593;45021;-74
2021/12/17 05:31:33;;;;;;;;;30.00;25.25;;;;;6.34;58.78;101823.00;146593;683;46916;-73
2021/12/17 05:34:25;;;;;;;;;32.25;26.00;;;;;6.33;59.41;101831.50;146589;571;46916;-77
2021/12/17 05:37:17;;;;;;;;;34.75;27.25;;;;;6.34;58.82;101830.72;146593;569;46012;-77
2021/12/17 05:40:10;;;;;;;;;27.00;23.50;;;;;6.32;58.96;101837.41;146594;580;46020;-76
2021/12/17 05:43:05;;;;;;;;;30.00;26.00;;;;;6.29;58.71;101832.00;146595;776;46014;-76
2021/12/17 05:49:10;;;;;;;;;27.25;24.75;;;;;6.25;59.03;101830.84;146595;615;46012;-76
2021/12/17 05:52:02;;;;;;;;;27.00;23.75;;;;;6.22;59.35;101828.88;146594;580;46020;-81
2021/12/17 05:54:54;;;;;;;;;30.00;24.00;;;;;6.22;59.60;101821.16;146594;589;47012;-72
2021/12/17 05:57:46;;;;;;;;;33.75;28.00;;;;;6.21;59.87;101828.78;146597;619;46011;-81
2021/12/17 06:00:41;;;;;;;;;25.25;24.25;;;;;6.18;59.99;101823.34;146595;624;46016;-81
2021/12/17 06:03:33;;;;;;;;;34.25;23.75;;;;;6.19;60.30;101825.16;146591;593;46029;-83
2021/12/17 06:06:46;;;;;;;;;23.00;19.00;;;;;6.19;59.67;101826.03;146595;627;46012;-81
2021/12/17 06:09:38;;;;;;;;;32.00;25.25;;;;;6.19;60.47;101827.72;146598;594;46010;-84
2021/12/17 06:12:30;;;;;;;;;32.50;28.50;;;;;6.19;60.33;101835.44;146591;644;46017;-79
2021/12/17 06:15:25;;;;;;;;;38.25;28.25;;;;;6.19;59.56;101833.78;146597;608;46012;-79
2021/12/17 06:18:17;;;;;;;;;31.00;25.25;;;;;6.20;59.77;101833.03;146592;617;46916;-79
2021/12/17 06:21:10;;;;;;;;;33.50;28.50;;;;;6.19;59.73;101835.44;146596;615;46010;-79
2021/12/17 06:24:02;;;;;;;;;33.25;29.50;;;;;5.07;59.52;101640.41;146597;611;46014;-81
2021/12/17 06:26:54;;;;;;;;;32.75;31.75;;;;;6.19;60.46;101835.44;146594;699;46021;-79
2021/12/17 06:29:47;;;;;;;;;32.75;30.00;;;;;6.23;60.09;101832.34;146596;752;46915;-82
2021/12/17 06:32:40;;;;;;;;;37.50;33.00;;;;;6.26;59.52;101837.78;146589;628;46021;-77
2021/12/17 06:35:32;;;;;;;;;33.50;32.00;;;;;6.32;59.30;101839.97;146596;593;46016;-77
2021/12/17 06:38:24;;;;;;;;;37.75;34.50;;;;;6.36;59.50;101845.53;146595;751;47010;-76
2021/12/17 06:41:17;;;;;;;;;40.00;32.50;;;;;6.50;59.20;101853.53;146590;658;46017;-80
2021/12/17 06:44:12;;;;;;;;;35.75;30.25;;;;;6.93;58.75;101848.66;146593;579;46020;-77
2021/12/17 06:47:10;;;;;;;;;38.50;30.00;;;;;7.79;56.30;101836.75;146593;598;46916;-80
2021/12/17 06:59:57;;;;;;;;;26.00;21.25;;;;;10.96;48.10;101843.75;146596;627;46016;-81
2021/12/17 07:06:37;;;;;;;;;19.25;18.50;;;;;12.23;45.00;101852.06;146592;570;46016;-78
2021/12/17 07:22:25;;;;;;;;;24.75;21.50;;;;;12.82;40.77;101877.34;146596;627;47010;-80
2021/12/17 07:29:11;;;;;;;;;23.50;21.25;;;;;12.61;42.79;101877.81;146593;594;46020;-87
2021/12/17 07:38:39;;;;;;;;;24.25;23.50;;;;;12.59;41.57;101862.94;146596;733;46914;-72
2021/12/17 07:41:31;;;;;;;;;20.50;16.50;;;;;12.44;41.97;101849.88;146596;665;46010;-74
2021/12/17 07:44:24;;;;;;;;;24.25;16.00;;;;;12.27;42.54;101841.03;146597;569;46012;-74
2021/12/17 07:47:16;;;;;;;;;26.00;23.50;;;;;12.08;42.24;101845.88;146597;564;47010;-74
2021/12/17 07:50:09;;;;;;;;;27.50;23.00;;;;;11.89;43.92;101844.72;146594;602;46916;-74
2021/12/17 07:53:01;;;;;;;;;23.25;21.50;;;;;11.86;44.73;101852.31;146593;616;46020;-75
2021/12/17 07:55:53;;;;;;;;;23.75;20.75;;;;;11.89;44.51;101843.81;146593;611;47012;-72
2021/12/17 07:58:46;;;;;;;;;23.50;21.50;;;;;11.87;44.10;101842.81;146594;576;46020;-71
2021/12/17 08:01:38;;;;;;;;;24.00;18.50;;;;;11.84;43.32;101833.13;146595;659;46916;-71
2021/12/17 08:04:30;;;;;;;;;21.25;19.00;;;;;11.76;43.89;101830.00;146589;604;47012;-71
2021/12/17 08:07:25;;;;;;;;;16.50;16.00;;;;;11.64;43.46;101826.63;146593;601;46016;-75
2021/12/17 08:10:18;;;;;;;;;19.50;16.00;;;;;11.59;44.08;101824.53;146598;634;46010;-76
2021/12/17 08:13:18;;;;;;;;;22.00;20.75;;;;;11.59;43.90;101822.84;146595;565;46016;-74
2021/12/17 08:16:41;;;;;;;;;20.50;17.25;;;;;11.64;44.40;101826.63;146596;566;47010;-70
2021/12/17 08:26:09;;;;;;;;;18.00;17.00;;;;;11.72;44.44;101832.34;146597;564;46019;-71
2021/12/17 08:32:13;;;;;;;;;18.00;15.75;;;;;11.85;43.57;101821.94;146595;569;46016;-70
2021/12/17 08:35:05;;;;;;;;;14.75;14.50;;;;;11.89;43.22;101816.13;146589;603;46020;-70
2021/12/17 08:37:58;;;;;;;;;15.75;12.75;;;;;11.91;43.56;101814.53;146594;612;46016;-70
2021/12/17 08:40:50;;;;;;;;;20.50;18.50;;;;;11.99;44.52;101802.94;146597;600;46010;-72
2021/12/17 08:43:43;;;;;;;;;28.75;23.00;;;;;12.16;44.82;101797.88;146597;598;46014;-69
2021/12/17 08:46:36;;;;;;;;;23.75;23.00;;;;;12.37;45.72;101800.91;146595;607;46020;-70
2021/12/17 08:49:28;;;;;;;;;24.50;24.50;;;;;12.61;44.36;101789.34;146594;569;46016;-70
2021/12/17 08:52:20;;;;;;;;;30.75;25.50;;;;;12.80;44.30;101790.44;146595;583;46020;-70
2021/12/17 08:55:13;;;;;;;;;26.00;23.75;;;;;12.92;43.24;101793.78;146595;601;46012;-70
2021/12/17 08:58:06;;;;;;;;;33.00;29.50;;;;;13.01;43.64;101803.84;146596;582;46020;-71
2021/12/17 09:00:58;;;;;;;;;28.00;26.50;;;;;13.05;43.47;101804.13;146592;571;46017;-71
2021/12/17 09:03:50;;;;;;;;;20.25;16.75;;;;;13.16;43.41;101800.41;146591;570;47010;-70
2021/12/17 09:06:43;;;;;;;;;23.25;21.50;;;;;13.31;43.64;101784.81;146593;581;46016;-70
2021/12/17 09:09:35;;;;;;;;;22.75;20.00;;;;;13.51;43.05;101785.03;146595;564;46021;-70
2021/12/17 09:12:28;;;;;;;;;22.75;21.75;;;;;13.66;41.04;101772.87;146596;597;46016;-70
2021/12/17 09:15:20;;;;;;;;;22.50;21.50;;;;;13.64;42.45;101769.25;146593;570;46020;-71
2021/12/17 09:18:12;;;;;;;;;21.25;19.75;;;;;13.66;41.39;101766.75;146592;599;47014;-70
2021/12/17 09:21:05;;;;;;;;;20.25;19.50;;;;;13.65;40.78;101762.37;146593;578;46020;-70
2021/12/17 09:23:57;;;;;;;;;25.00;20.75;;;;;13.71;42.77;101768.81;146593;575;47012;-71
2021/12/17 09:26:49;;;;;;;;;14.75;14.00;;;;;13.84;42.58;101758.22;146593;609;46020;-70
2021/12/17 09:29:41;;;;;;;;;25.50;22.50;;;;;14.05;40.46;101750.69;146594;561;46016;-72
2021/12/17 09:32:34;;;;;;;;;20.50;18.00;;;;;14.17;40.67;101737.38;146588;586;47012;-70
2021/12/17 09:35:26;;;;;;;;;17.75;15.75;;;;;14.25;41.50;101737.78;146586;646;48916;-71
2021/12/17 09:38:18;;;;;;;;;17.00;15.75;;;;;14.39;40.86;101735.88;146598;641;46010;-71
2021/12/17 09:41:10;;;;;;;;;20.25;16.00;;;;;14.54;41.38;101729.78;146598;563;46916;-70
2021/12/17 09:44:03;;;;;;;;;24.50;22.75;;;;;14.75;41.92;101732.59;146596;577;46020;-70
2021/12/17 09:46:57;;;;;;;;;20.25;18.00;;;;;14.90;40.49;101718.50;146596;629;47013;-71
2021/12/17 09:49:50;;;;;;;;;18.25;15.00;;;;;14.96;39.42;101713.59;146595;596;46020;-72
2021/12/17 09:52:42;;;;;;;;;18.00;15.50;;;;;14.98;40.08;101711.94;146600;655;46016;-71
2021/12/17 09:55:34;;;;;;;;;17.50;16.50;;;;;15.10;40.76;101709.91;146596;592;46020;-71
2021/12/17 09:58:27;;;;;;;;;13.75;13.75;;;;;15.26;39.90;101708.94;146598;586;46034;-71
2021/12/17 10:01:19;;;;;;;;;25.00;21.50;;;;;15.38;40.15;101698.19;146592;598;46916;-71
2021/12/17 10:04:21;;;;;;;;;20.00;15.75;;;;;15.51;41.81;101697.03;146593;596;46016;-70
2021/12/17 10:07:36;;;;;;;;;22.75;18.25;;;;;15.70;41.76;101687.56;146594;570;46020;-70
2021/12/17 10:10:48;;;;;;;;;17.00;14.75;;;;;15.84;40.57;101677.69;146600;631;46012;-70
2021/12/17 10:13:41;;;;;;;;;12.75;12.75;;;;;15.91;40.32;101671.03;146597;571;46020;-71
2021/12/17 10:16:42;;;;;;;;;19.75;17.25;;;;;16.00;40.30;101673.16;146597;618;46012;-71
2021/12/17 10:20:07;;;;;;;;;16.75;14.75;;;;;15.17;41.36;101510.88;146597;589;47010;-72
2021/12/17 10:23:09;;;;;;;;;18.00;16.00;;;;;16.07;38.40;101672.59;146599;616;46017;-71
2021/12/17 10:26:01;;;;;;;;;14.75;14.50;;;;;16.03;38.72;101668.06;146597;569;46020;-71
2021/12/17 10:29:02;;;;;;;;;16.00;14.75;;;;;15.90;38.37;101669.25;146594;565;46012;-70
2021/12/17 10:32:01;;;;;;;;;20.25;19.25;;;;;15.76;39.73;101666.00;146590;570;46020;-71
2021/12/17 10:35:08;;;;;;;;;26.00;23.50;;;;;15.66;36.67;101656.81;146588;598;47014;-70
2021/12/17 10:38:04;;;;;;;;;22.50;18.25;;;;;15.66;38.62;101659.41;146595;591;46035;-71
2021/12/17 10:41:08;;;;;;;;;39.75;30.25;;;;;15.66;39.10;101655.91;146591;599;46016;-71
2021/12/17 10:44:11;;;;;;;;;19.75;19.00;;;;;15.66;40.55;101651.56;146595;593;46020;-71
2021/12/17 10:47:19;;;;;;;;;21.50;17.75;;;;;15.74;38.87;101638.00;146592;579;46025;-71
2021/12/17 10:50:11;;;;;;;;;30.00;24.50;;;;;15.83;37.83;101636.69;146596;592;46020;-71
2021/12/17 10:53:12;;;;;;;;;31.25;26.00;;;;;15.89;39.85;101625.63;146587;605;46017;-71
2021/12/17 10:56:05;;;;;;;;;29.75;27.00;;;;;15.96;38.28;101613.69;146596;563;46010;-70
2021/12/17 10:59:09;;;;;;;;;19.75;17.50;;;;;16.04;40.30;101597.47;146593;603;46017;-70
2021/12/17 11:02:12;;;;;;;;;26.75;22.00;;;;;16.22;40.04;101578.16;146590;585;46010;-71
2021/12/17 11:05:17;;;;;;;;;26.00;24.25;;;;;16.40;39.82;101578.94;146595;631;46016;-72
2021/12/17 11:08:30;;;;;;;;;24.75;20.75;;;;;16.54;40.29;101567.31;146596;602;46021;-71
2021/12/17 11:11:23;;;;;;;;;24.25;22.75;;;;;16.62;38.17;101572.84;146594;569;46016;-71
2021/12/17 11:14:26;;;;;;;;;21.00;19.00;;;;;16.60;37.15;101574.50;146603;616;46020;-72
2021/12/17 11:17:21;;;;;;;;;22.00;19.00;;;;;16.49;37.80;101560.09;146597;564;46016;-72
2021/12/17 11:20:38;;;;;;;;;21.75;19.25;;;;;16.37;38.86;101564.00;146596;566;47010;-72
2021/12/17 11:23:33;;;;;;;;;22.50;19.00;;;;;16.33;38.57;101533.28;146598;598;46016;-72
2021/12/17 11:26:26;;;;;;;;;24.25;22.50;;;;;16.39;37.89;101533.53;146596;586;46020;-72
2021/12/17 11:29:20;;;;;;;;;19.50;17.75;;;;;16.33;37.74;101528.06;146592;639;47014;-71
2021/12/17 11:32:13;;;;;;;;;18.75;18.75;;;;;16.30;38.46;101537.53;146590;659;46010;-71
2021/12/17 11:35:08;;;;;;;;;17.50;16.25;;;;;16.28;38.50;101528.69;146595;600;46017;-73
2021/12/17 11:38:05;;;;;;;;;21.75;17.75;;;;;16.28;39.07;101526.09;146594;571;46021;-72
2021/12/17 11:41:40;;;;;;;;;19.75;18.00;;;;;15.83;40.95;101411.78;146592;577;46916;-71
2021/12/17 11:44:42;;;;;;;;;16.25;14.00;;;;;16.61;38.84;101505.59;146594;613;46021;-71
2021/12/17 11:47:40;;;;;;;;;18.75;16.50;;;;;16.74;39.38;101509.59;146590;668;47014;-71
2021/12/17 11:50:36;;;;;;;;;12.75;12.00;;;;;16.94;39.10;101511.25;146593;573;46020;-71
2021/12/17 11:53:28;;;;;;;;;14.50;12.75;;;;;17.13;37.51;101507.59;146590;566;47012;-72
2021/12/17 11:56:42;;;;;;;;;18.25;16.00;;;;;17.32;39.61;101506.56;146589;593;46010;-72
2021/12/17 11:59:41;;;;;;;;;16.75;13.50;;;;;17.50;38.38;101495.81;146592;615;46916;-71
2021/12/17 12:02:33;;;;;;;;;39.50;31.50;;;;;17.69;37.33;101490.38;146589;576;46010;-71
2021/12/17 12:05:43;;;;;;;;;48.00;39.00;;;;;17.89;38.53;101484.97;146592;586;47013;-73
2021/12/17 12:08:51;;;;;;;;;40.00;32.50;;;;;18.03;37.15;101480.16;146590;658;47020;-72
2021/12/17 12:11:43;;;;;;;;;24.75;24.25;;;;;18.24;35.81;101480.87;146592;636;46014;-72
2021/12/17 12:14:36;;;;;;;;;20.75;19.25;;;;;18.32;35.96;101468.00;146595;615;46011;-71
2021/12/17 12:18:21;;;;;;;;;28.00;25.75;;;;;18.42;38.83;101484.06;146594;575;46014;-71
2021/12/17 12:21:18;;;;;;;;;20.25;18.25;;;;;18.48;35.51;101482.50;146595;595;46021;-71
2021/12/17 12:24:18;;;;;;;;;17.50;15.00;;;;;18.53;36.90;101483.50;146596;583;46016;-71
2021/12/17 12:27:31;;;;;;;;;20.00;16.75;;;;;18.52;37.80;101487.87;146597;588;46020;-71
2021/12/17 12:30:42;;;;;;;;;19.50;18.50;;;;;18.56;38.58;101488.84;146598;577;46012;-71
2021/12/17 12:33:35;;;;;;;;;18.75;17.50;;;;;18.69;35.54;101477.87;146591;613;46027;-71
2021/12/17 12:37:00;;;;;;;;;19.75;18.25;;;;;17.89;38.33;101310.06;146596;569;46013;-72
2021/12/17 12:40:16;;;;;;;;;37.00;30.00;;;;;18.10;38.36;101303.69;146596;649;46020;-71
2021/12/17 12:43:08;;;;;;;;;27.25;23.75;;;;;19.29;35.51;101462.12;146597;646;46017;-72
2021/12/17 12:46:01;;;;;;;;;23.00;21.25;;;;;19.35;34.22;101454.41;146587;613;47916;-71
2021/12/17 12:48:53;;;;;;;;;16.25;14.00;;;;;19.32;34.59;101442.94;146595;564;46916;-72
2021/12/17 12:51:46;;;;;;;;;21.50;17.50;;;;;19.32;34.87;101450.81;146596;615;47010;-72
2021/12/17 12:54:38;;;;;;;;;13.00;12.75;;;;;19.45;36.31;101452.91;146598;574;46034;-72
2021/12/17 12:57:42;;;;;;;;;11.75;10.00;;;;;19.67;36.10;101446.50;146597;681;47010;-71
2021/12/17 13:00:43;;;;;;;;;16.75;15.50;;;;;19.86;33.43;101453.13;146598;646;45916;-71
2021/12/17 13:03:39;;;;;;;;;13.25;11.50;;;;;19.87;34.47;101443.47;146591;673;46010;-71
2021/12/17 13:06:32;;;;;;;;;12.75;12.00;;;;;19.67;34.10;101438.62;146594;622;46017;-71
2021/12/17 13:09:35;;;;;;;;;15.75;14.75;;;;;19.57;35.94;101436.56;146599;630;46010;-71
2021/12/17 13:12:30;;;;;;;;;18.50;17.00;;;;;19.34;35.14;101438.59;146596;590;46013;-72
2021/12/17 13:22:28;;;;;;;;;13.00;12.00;;;;;17.43;36.22;101418.69;146594;723;46020;-71
2021/12/17 13:25:28;;;;;;;;;18.25;15.00;;;;;16.81;37.88;101413.00;146600;564;46012;-71
2021/12/17 13:28:20;;;;;;;;;13.50;13.50;;;;;16.28;37.64;101413.56;146598;570;46011;-71
2021/12/17 13:31:12;;;;;;;;;17.25;15.25;;;;;15.82;39.16;101416.94;146592;586;46016;-73
2021/12/17 13:34:09;;;;;;;;;22.50;21.00;;;;;15.50;39.65;101410.34;146589;587;46021;-72
2021/12/17 13:37:38;;;;;;;;;16.25;16.25;;;;;15.34;42.20;101401.88;146586;604;47916;-71
2021/12/17 13:40:36;;;;;;;;;23.00;18.00;;;;;15.23;39.92;101398.81;146596;573;46020;-71
2021/12/17 13:43:37;;;;;;;;;41.00;34.00;;;;;15.04;41.60;101374.41;146594;568;46017;-72
2021/12/17 13:46:31;;;;;;;;;27.50;24.50;;;;;14.94;41.62;101375.75;146594;620;46020;-72
2021/12/17 13:49:24;;;;;;;;;52.25;41.25;;;;;14.82;41.35;101370.84;146590;605;46016;-72
2021/12/17 13:52:17;;;;;;;;;58.00;47.50;;;;;14.67;41.13;101364.94;146592;569;46021;-72
2021/12/17 13:55:14;;;;;;;;;55.00;43.25;;;;;14.53;41.50;101375.69;146595;579;46916;-72
2021/12/17 13:58:12;;;;;;;;;57.50;45.00;;;;;14.40;41.78;101367.19;146593;600;47012;-71
2021/12/17 14:01:05;;;;;;;;;36.25;31.50;;;;;14.30;41.75;101358.06;146595;595;46010;-73
2021/12/17 14:03:59;;;;;;;;;33.25;30.50;;;;;14.18;41.83;101358.38;146590;574;46010;-73
2021/12/17 14:06:53;;;;;;;;;18.75;15.50;;;;;14.06;42.49;101350.84;146596;610;46016;-72
2021/12/17 14:09:45;;;;;;;;;24.75;22.75;;;;;13.99;42.85;101358.34;146594;711;47010;-73
2021/12/17 14:12:39;;;;;;;;;19.25;16.25;;;;;13.94;41.81;101352.88;146596;585;47012;-73
2021/12/17 14:15:34;;;;;;;;;25.75;23.00;;;;;13.98;42.97;101359.13;146598;627;46010;-72
2021/12/17 14:18:31;;;;;;;;;22.50;17.50;;;;;14.19;41.54;101344.50;146591;596;47012;-71
2021/12/17 14:21:31;;;;;;;;;18.50;16.00;;;;;14.45;41.23;101352.63;146596;599;47010;-72
2021/12/17 14:24:33;;;;;;;;;16.25;16.25;;;;;14.64;41.81;101339.63;146600;565;46012;-72
2021/12/17 14:27:25;;;;;;;;;21.75;17.50;;;;;14.75;40.06;101345.31;146598;631;47010;-72
2021/12/17 14:30:18;;;;;;;;;20.00;18.75;;;;;14.79;39.50;101350.72;146595;593;47012;-71
2021/12/17 14:33:21;;;;;;;;;34.25;28.75;;;;;14.73;41.07;101349.56;146588;609;47013;-72
2021/12/17 14:36:41;;;;;;;;;43.50;36.00;;;;;13.91;41.29;101235.44;146597;582;46012;-71
2021/12/17 14:39:41;;;;;;;;;42.00;33.75;;;;;14.37;40.60;101346.19;146593;582;46010;-71
2021/12/17 14:42:36;;;;;;;;;25.25;21.50;;;;;14.18;40.79;101349.66;146593;631;46017;-72
2021/12/17 14:45:43;;;;;;;;;62.25;48.50;;;;;13.98;41.88;101344.38;146597;620;46022;-72
2021/12/17 14:48:52;;;;;;;;;34.00;27.50;;;;;13.78;41.43;101343.44;146592;589;47013;-72
2021/12/17 15:02:11;;;;;;;;;28.50;27.25;;;;;12.99;43.27;101342.03;146593;563;46031;-72
2021/12/17 15:05:03;;;;;;;;;24.25;23.50;;;;;12.82;43.14;101334.28;146590;602;47010;-72
2021/12/17 15:07:57;;;;;;;;;36.00;30.50;;;;;12.74;43.00;101335.59;146595;572;46016;-72
2021/12/17 15:10:50;;;;;;;;;39.00;31.75;;;;;12.63;42.88;101319.41;146602;581;46011;-72
2021/12/17 15:13:42;;;;;;;;;51.25;39.50;;;;;12.54;43.62;101323.25;146601;565;46016;-72
2021/12/17 15:16:35;;;;;;;;;31.25;27.50;;;;;12.46;43.36;101326.34;146600;632;46020;-71
2021/12/17 15:19:27;;;;;;;;;39.00;34.00;;;;;12.39;43.44;101316.41;146600;581;47012;-72
2021/12/17 15:22:19;;;;;;;;;35.25;30.75;;;;;12.30;43.23;101322.81;146597;614;46020;-70
2021/12/17 15:25:13;;;;;;;;;34.00;30.75;;;;;12.22;43.27;101306.81;146598;576;46016;-71
2021/12/17 15:28:05;;;;;;;;;50.25;38.50;;;;;12.12;44.01;101296.72;146602;567;45021;-69
2021/12/17 15:31:04;;;;;;;;;62.50;48.00;;;;;12.04;44.04;101296.31;146595;586;46016;-70
2021/12/17 15:33:56;;;;;;;;;51.00;41.25;;;;;11.95;43.64;101298.41;146590;564;46021;-71
2021/12/17 15:36:49;;;;;;;;;49.75;40.25;;;;;11.85;44.44;101304.81;146594;565;46012;-72
2021/12/17 15:39:41;;;;;;;;;47.25;39.00;;;;;11.80;44.82;101296.72;146598;582;46020;-70
2021/12/17 15:42:33;;;;;;;;;59.00;45.50;;;;;11.77;44.39;101293.97;146599;616;46016;-72
2021/12/17 15:45:25;;;;;;;;;70.00;54.50;;;;;11.69;44.86;101287.44;146597;585;47010;-72
2021/12/17 15:48:20;;;;;;;;;49.50;39.50;;;;;11.59;44.67;101289.44;146596;588;46916;-72
2021/12/17 15:51:13;;;;;;;;;52.00;41.75;;;;;11.48;45.33;101294.03;146601;579;46010;-72
2021/12/17 15:54:05;;;;;;;;;51.75;42.00;;;;;11.39;45.04;101294.41;146595;592;46017;-70
2021/12/17 15:56:57;;;;;;;;;55.75;45.00;;;;;11.31;45.25;101293.09;146595;717;46021;-72
2021/12/17 15:59:50;;;;;;;;;49.50;40.25;;;;;11.22;45.35;101298.66;146595;570;46915;-74
2021/12/17 16:02:43;;;;;;;;;49.50;41.50;;;;;11.19;45.51;101310.56;146588;567;46021;-73
2021/12/17 16:05:35;;;;;;;;;53.00;43.00;;;;;11.14;45.56;101301.59;146597;679;46016;-74
2021/12/17 16:08:28;;;;;;;;;53.50;43.50;;;;;11.10;46.24;101301.41;146596;612;46019;-73
2021/12/17 16:21:04;;;;;;;;;43.75;36.75;;;;;11.06;46.48;101309.84;146593;600;46020;-72
2021/12/17 16:23:57;;;;;;;;;37.00;32.00;;;;;11.08;46.32;101304.72;146595;595;46016;-73
2021/12/17 16:26:50;;;;;;;;;49.00;40.25;;;;;11.14;46.53;101304.19;146593;565;46021;-72
2021/12/17 16:29:42;;;;;;;;;52.75;43.75;;;;;11.16;46.88;101300.00;146594;617;47014;-73